createdAt,value
2023-05-05T00:00:52.020Z,67.70
2023-05-05T00:03:37.515Z,67.80
2023-05-05T00:06:23.015Z,67.40
2023-05-05T00:09:08.172Z,67.10
2023-05-05T00:11:53.515Z,67.10
2023-05-05T00:14:38.825Z,67.40
2023-05-05T00:17:24.345Z,68.20
2023-05-05T00:20:10.236Z,67.70
2023-05-05T00:22:56.087Z,67.30
2023-05-05T00:25:41.598Z,67.10
2023-05-05T00:28:27.459Z,67.30
2023-05-05T00:31:15.351Z,67.50
2023-05-05T00:34:00.744Z,67.10
2023-05-05T00:36:45.995Z,67.70
2023-05-05T00:39:31.334Z,67.30
2023-05-05T00:42:16.790Z,67.70
2023-05-05T00:45:02.184Z,67.60
2023-05-05T00:47:56.944Z,67.30
2023-05-05T00:50:44.848Z,67.30
2023-05-05T00:53:30.892Z,67.40
2023-05-05T00:56:19.359Z,68.30
2023-05-05T00:59:04.447Z,68.50
2023-05-05T01:01:50.690Z,68.70
2023-05-05T01:04:35.822Z,68.70
2023-05-05T01:07:43.193Z,69.00
2023-05-05T01:10:34.603Z,68.60
2023-05-05T01:13:37.268Z,68.90
2023-05-05T01:16:27.383Z,69.40
2023-05-05T01:19:51.204Z,69.40
2023-05-05T01:22:47.202Z,69.40
2023-05-05T01:25:41.592Z,69.10
2023-05-05T01:29:02.893Z,69.30
2023-05-05T01:31:57.270Z,69.40
2023-05-05T01:34:57.954Z,69.50
2023-05-05T01:38:07.798Z,69.80
2023-05-05T01:41:05.205Z,69.90
2023-05-05T01:43:52.305Z,69.30
2023-05-05T01:46:37.950Z,69.70
2023-05-05T01:49:23.652Z,69.40
2023-05-05T01:52:10.243Z,69.80
2023-05-05T01:54:57.668Z,69.80
2023-05-05T01:57:44.728Z,70.80
2023-05-05T02:00:31.168Z,70.00
2023-05-05T02:03:18.111Z,70.20
2023-05-05T02:06:05.635Z,70.00
2023-05-05T02:08:52.856Z,70.00
2023-05-05T02:11:39.200Z,70.10
2023-05-05T02:14:27.043Z,70.10
2023-05-05T02:17:13.297Z,70.60
2023-05-05T02:20:01.061Z,70.50
2023-05-05T02:22:46.514Z,70.70
2023-05-05T02:25:38.269Z,71.00
2023-05-05T02:28:42.109Z,70.80
2023-05-05T02:31:28.634Z,70.90
2023-05-05T02:34:20.144Z,70.90
2023-05-05T02:37:07.325Z,70.90
2023-05-05T02:39:59.079Z,71.30
2023-05-05T02:42:46.816Z,71.40
2023-05-05T02:45:32.489Z,71.40
2023-05-05T02:48:17.946Z,71.60
2023-05-05T02:51:03.270Z,71.40
2023-05-05T02:53:48.717Z,71.60
2023-05-05T02:56:44.415Z,71.50
2023-05-05T02:59:39.138Z,71.20
2023-05-05T03:02:35.199Z,71.70
2023-05-05T03:05:24.026Z,71.50
2023-05-05T03:08:28.124Z,71.80
2023-05-05T03:11:22.881Z,71.50
2023-05-05T03:14:13.293Z,71.60
2023-05-05T03:16:59.645Z,71.70
2023-05-05T03:19:45.513Z,71.80
2023-05-05T03:22:30.857Z,71.60
2023-05-05T03:25:15.834Z,72.00
2023-05-05T03:28:01.175Z,72.20
2023-05-05T03:30:46.854Z,72.00
2023-05-05T03:33:32.244Z,71.70
2023-05-05T03:36:17.683Z,72.10
2023-05-05T03:39:03.624Z,72.10
2023-05-05T03:41:49.161Z,71.80
2023-05-05T03:44:34.490Z,72.00
2023-05-05T03:47:19.800Z,71.90
2023-05-05T03:50:06.684Z,71.60
2023-05-05T03:52:52.345Z,71.80
2023-05-05T03:55:37.705Z,72.10
2023-05-05T03:58:23.218Z,72.40
2023-05-05T04:01:08.954Z,72.50
2023-05-05T04:03:54.122Z,72.30
2023-05-05T04:06:39.286Z,72.30
2023-05-05T04:09:24.673Z,72.30
2023-05-05T04:12:11.440Z,72.30
2023-05-05T04:14:56.760Z,72.70
2023-05-05T04:17:42.762Z,72.60
2023-05-05T04:20:27.690Z,72.80
2023-05-05T04:23:13.281Z,73.10
2023-05-05T04:25:58.689Z,73.10
2023-05-05T04:28:44.091Z,73.10
2023-05-05T04:31:29.529Z,73.30
2023-05-05T04:34:14.666Z,73.20
2023-05-05T04:37:00.052Z,73.20
2023-05-05T04:39:45.852Z,73.20
2023-05-05T04:42:31.264Z,73.00
2023-05-05T04:45:16.606Z,73.30
2023-05-05T04:48:02.140Z,73.40
2023-05-05T04:50:47.675Z,73.40
2023-05-05T04:53:33.472Z,73.30
2023-05-05T04:56:18.856Z,73.60
2023-05-05T04:59:04.407Z,74.00
2023-05-05T05:01:49.694Z,75.90
2023-05-05T05:04:35.092Z,74.80
2023-05-05T05:07:20.550Z,74.10
2023-05-05T05:10:06.556Z,73.80
2023-05-05T05:12:51.784Z,73.90
2023-05-05T05:15:38.221Z,73.80
2023-05-05T05:18:23.585Z,73.30
2023-05-05T05:21:10.246Z,73.20
2023-05-05T05:23:55.566Z,73.10
2023-05-05T05:26:41.013Z,73.20
2023-05-05T05:29:27.082Z,73.10
2023-05-05T05:32:12.847Z,73.30
2023-05-05T05:34:58.232Z,73.20
2023-05-05T05:37:43.606Z,73.40
2023-05-05T05:40:29.151Z,73.40
2023-05-05T05:43:14.725Z,73.90
2023-05-05T05:46:01.291Z,73.50
2023-05-05T05:48:47.033Z,73.40
2023-05-05T05:51:32.308Z,73.40
2023-05-05T05:54:17.630Z,73.50
2023-05-05T05:57:03.985Z,73.30
2023-05-05T05:59:49.351Z,73.40
2023-05-05T06:02:34.974Z,73.40
2023-05-05T06:05:20.349Z,74.00
2023-05-05T06:08:05.810Z,72.90
2023-05-05T06:10:51.089Z,74.10
2023-05-05T06:13:39.076Z,74.30
2023-05-05T06:16:24.492Z,73.20
2023-05-05T06:19:11.148Z,72.30
2023-05-05T06:21:56.342Z,72.30
2023-05-05T06:24:41.805Z,73.50
2023-05-05T06:27:27.025Z,72.30
2023-05-05T06:30:13.032Z,71.30
2023-05-05T06:32:58.476Z,72.50
2023-05-05T06:35:43.876Z,72.20
2023-05-05T06:38:29.411Z,72.60
2023-05-05T06:41:14.608Z,72.30
2023-05-05T06:43:59.858Z,72.20
2023-05-05T06:46:45.274Z,72.80
2023-05-05T06:49:30.538Z,72.90
2023-05-05T06:52:16.038Z,72.30
2023-05-05T06:55:01.479Z,71.50
2023-05-05T06:57:46.954Z,69.70
2023-05-05T07:00:32.208Z,70.50
2023-05-05T07:03:18.104Z,70.70
2023-05-05T07:06:03.585Z,70.10
2023-05-05T07:08:48.655Z,70.50
2023-05-05T07:11:34.194Z,69.70
2023-05-05T07:14:20.612Z,69.90
2023-05-05T07:17:07.468Z,70.10
2023-05-05T07:19:54.923Z,69.50
2023-05-05T07:22:40.347Z,70.10
2023-05-05T07:25:25.823Z,70.50
2023-05-05T07:28:11.315Z,70.30
2023-05-05T07:30:56.532Z,69.30
2023-05-05T07:33:42.182Z,69.70
2023-05-05T07:36:27.889Z,70.00
2023-05-05T07:39:15.195Z,69.80
2023-05-05T07:42:01.580Z,70.20
2023-05-05T07:44:46.969Z,69.30
2023-05-05T07:47:32.628Z,69.20
2023-05-05T07:50:18.433Z,69.30
2023-05-05T07:53:13.826Z,69.50
2023-05-05T07:56:00.090Z,69.20
2023-05-05T07:58:45.181Z,68.60
2023-05-05T08:01:30.510Z,68.00
2023-05-05T08:04:15.959Z,68.10
2023-05-05T08:07:01.366Z,67.80
2023-05-05T08:09:46.527Z,67.90
2023-05-05T08:12:32.014Z,68.20
2023-05-05T08:15:17.315Z,67.40
2023-05-05T08:18:02.839Z,67.90
2023-05-05T08:20:48.055Z,67.40
2023-05-05T08:23:34.938Z,68.50
2023-05-05T08:26:20.024Z,68.50
2023-05-05T08:29:05.452Z,68.00
2023-05-05T08:31:50.926Z,67.40
2023-05-05T08:34:36.290Z,67.80
2023-05-05T08:37:21.648Z,67.80
2023-05-05T08:40:07.745Z,68.20
2023-05-05T08:42:53.024Z,68.40
2023-05-05T08:45:41.683Z,67.90
2023-05-05T08:48:29.644Z,67.50
2023-05-05T08:51:21.506Z,68.00
2023-05-05T08:54:09.913Z,68.00
2023-05-05T08:56:59.117Z,68.50
2023-05-05T08:59:44.865Z,68.30
2023-05-05T09:02:31.174Z,67.70
2023-05-05T09:05:17.794Z,67.30
2023-05-05T09:08:05.435Z,67.00
2023-05-05T09:10:51.715Z,67.00
2023-05-05T09:13:37.084Z,67.00
2023-05-05T09:16:22.985Z,66.90
2023-05-05T09:19:08.063Z,67.60
2023-05-05T09:21:54.532Z,66.90
2023-05-05T09:24:54.593Z,67.70
2023-05-05T09:27:42.212Z,66.80
2023-05-05T09:30:27.241Z,66.90
2023-05-05T09:33:13.713Z,66.70
2023-05-05T09:35:59.027Z,66.80
2023-05-05T09:39:04.383Z,66.30
2023-05-05T09:41:49.579Z,67.00
2023-05-05T09:44:36.599Z,66.30
2023-05-05T09:47:29.287Z,66.60
2023-05-05T09:50:18.697Z,66.70
2023-05-05T09:53:04.510Z,65.70
2023-05-05T09:55:56.936Z,65.90
2023-05-05T09:58:42.516Z,67.30
2023-05-05T10:01:27.783Z,66.60
2023-05-05T10:04:24.843Z,66.10
2023-05-05T10:07:24.894Z,66.00
2023-05-05T10:10:13.144Z,66.40
2023-05-05T10:12:58.756Z,65.30
2023-05-05T10:15:45.761Z,65.20
2023-05-05T10:18:32.337Z,66.00
2023-05-05T10:21:21.027Z,66.20
2023-05-05T10:24:16.689Z,66.30
2023-05-05T10:27:07.220Z,64.30
2023-05-05T10:30:03.389Z,64.80
2023-05-05T10:33:00.858Z,65.40
2023-05-05T10:36:00.390Z,65.30
2023-05-05T10:38:46.318Z,65.30
2023-05-05T10:41:33.210Z,64.50
2023-05-05T10:44:19.311Z,65.00
2023-05-05T10:47:05.875Z,65.00
2023-05-05T10:50:07.449Z,63.50
2023-05-05T10:53:04.933Z,64.10
2023-05-05T10:56:15.255Z,63.50
2023-05-05T10:59:01.073Z,63.40
2023-05-05T11:01:46.375Z,64.00
2023-05-05T11:04:31.707Z,63.30
2023-05-05T11:07:23.855Z,63.90
2023-05-05T11:10:10.774Z,62.20
2023-05-05T11:12:59.243Z,62.80
2023-05-05T11:15:44.492Z,62.60
2023-05-05T11:18:35.621Z,62.30
2023-05-05T11:21:21.090Z,61.70
2023-05-05T11:24:29.007Z,62.90
2023-05-05T11:27:14.007Z,62.80
2023-05-05T11:30:10.314Z,62.60
2023-05-05T11:33:24.850Z,62.30
2023-05-05T11:36:12.877Z,62.00
2023-05-05T11:39:29.598Z,62.50
2023-05-05T11:42:24.603Z,62.20
2023-05-05T11:45:21.169Z,61.80
2023-05-05T11:48:43.566Z,61.20
2023-05-05T11:51:29.023Z,61.30
2023-05-05T11:54:21.050Z,62.40
2023-05-05T11:57:07.709Z,62.00
2023-05-05T11:59:57.559Z,62.20
2023-05-05T12:02:42.906Z,62.20
2023-05-05T12:05:28.365Z,62.30
2023-05-05T12:08:14.724Z,62.90
2023-05-05T12:11:12.140Z,62.40
2023-05-05T12:14:12.704Z,62.10
2023-05-05T12:17:10.757Z,62.20
2023-05-05T12:19:55.998Z,62.20
2023-05-05T12:22:41.583Z,61.90
2023-05-05T12:25:35.090Z,61.80
2023-05-05T12:28:20.605Z,60.90
2023-05-05T12:31:06.191Z,60.80
2023-05-05T12:33:52.440Z,62.20
2023-05-05T12:36:39.415Z,63.00
2023-05-05T12:39:37.690Z,64.10
2023-05-05T12:42:23.537Z,62.10
2023-05-05T12:45:17.639Z,60.40
2023-05-05T12:48:22.125Z,61.00
2023-05-05T12:51:21.155Z,62.60
2023-05-05T12:54:11.157Z,62.00
2023-05-05T12:57:03.165Z,62.00
2023-05-05T12:59:48.878Z,62.10
2023-05-05T13:02:35.080Z,62.80
2023-05-05T13:05:34.178Z,61.60
2023-05-05T13:08:19.305Z,61.50
2023-05-05T13:11:04.785Z,62.10
2023-05-05T13:13:50.134Z,62.70
2023-05-05T13:16:35.884Z,62.80
2023-05-05T13:19:22.654Z,63.60
2023-05-05T13:22:09.875Z,62.60
2023-05-05T13:24:55.033Z,62.30
2023-05-05T13:27:40.420Z,62.50
2023-05-05T13:30:26.213Z,62.10
2023-05-05T13:33:11.353Z,61.80
2023-05-05T13:35:56.857Z,62.70
2023-05-05T13:38:42.022Z,62.10
2023-05-05T22:19:26.993Z,99.90
2023-05-05T22:22:12.306Z,99.90
2023-05-05T22:24:57.685Z,99.90
2023-05-05T22:27:43.035Z,99.90
2023-05-05T22:30:28.305Z,99.90
2023-05-05T22:33:13.638Z,99.90
2023-05-05T22:35:59.079Z,99.90
2023-05-05T22:38:44.360Z,99.90
2023-05-05T22:41:29.794Z,99.90
2023-05-05T22:44:15.400Z,99.90
2023-05-05T22:47:01.015Z,99.70
2023-05-05T22:49:46.738Z,99.80
2023-05-05T22:52:32.197Z,99.40
2023-05-05T22:55:17.682Z,99.30
2023-05-05T22:58:02.941Z,99.40
2023-05-05T23:00:48.415Z,99.60
2023-05-05T23:03:33.711Z,99.50
2023-05-05T23:06:19.207Z,99.80
2023-05-05T23:09:04.522Z,99.60
2023-05-05T23:11:49.781Z,99.70
2023-05-05T23:14:35.806Z,99.50
2023-05-05T23:17:21.311Z,99.40
2023-05-05T23:20:09.613Z,99.60
2023-05-05T23:22:55.585Z,99.50
2023-05-05T23:25:40.927Z,99.20
2023-05-05T23:28:26.282Z,99.70
2023-05-05T23:31:11.905Z,99.60
2023-05-05T23:33:57.058Z,99.70
2023-05-05T23:36:42.544Z,99.60
2023-05-05T23:39:28.050Z,99.30
2023-05-05T23:42:13.389Z,99.20
2023-05-05T23:44:58.784Z,99.10
2023-05-05T23:47:44.018Z,99.30
2023-05-05T23:50:30.217Z,99.30
2023-05-05T23:53:15.810Z,99.20
2023-05-05T23:56:01.284Z,99.30
2023-05-05T23:58:46.859Z,99.40
